ENAL/AES METAR and TAF weather

Enter ICAO airport designator
Station Type Date Time Source
ENAL METAR 2018/01/24 07:20 UTC NOAA

ENAL 240720Z 19012KT 9999 FEW015 SCT030 06/03 Q0987


Station Type Date Time Source
ENAL Decoded METAR 2018/01/24 07:20 UTC NOAA

Alesund / Vigra, Norway (ENAL) 62-34N 006-07E 22M
Jan 24, 2018 - 02:20 AM EST / 2018.01.24 0720 UTC
Wind: from the S (190 degrees) at 14 MPH (12 KT):0
Visibility: greater than 7 mile(s):0
Sky conditions: partly cloudy
Temperature: 42 F (6 C)
Dew Point: 37 F (3 C)
Relative Humidity: 81%
Pressure (altimeter): 29.15 in. Hg (0987 hPa)
ob: ENAL 240720Z 19012KT 9999 FEW015 SCT030 06/03 Q0987
cycle: 7

Station Type Date Time Source
ENAL TAF UTC NOAA

Error!


Example: see airport list